createdAt,value
2023-05-16T00:00:48.864Z,22.52
2023-05-16T00:03:15.907Z,18.77
2023-05-16T00:05:42.946Z,20.95
2023-05-16T00:08:09.997Z,26.63
2023-05-16T00:10:37.685Z,22.20
2023-05-16T00:13:04.687Z,24.55
2023-05-16T00:15:31.640Z,22.95
2023-05-16T00:17:59.383Z,24.17
2023-05-16T00:20:28.496Z,23.42
2023-05-16T00:22:56.238Z,23.05
2023-05-16T00:25:23.615Z,23.00
2023-05-16T00:27:50.703Z,21.95
2023-05-16T00:30:17.845Z,21.27
2023-05-16T00:32:44.910Z,24.73
2023-05-16T00:35:12.485Z,22.92
2023-05-16T00:37:40.233Z,20.95
2023-05-16T00:40:08.423Z,19.83
2023-05-16T00:42:36.610Z,20.85
2023-05-16T00:45:06.398Z,20.27
2023-05-16T00:47:33.580Z,20.58
2023-05-16T00:53:07.688Z,19.67
2023-05-16T00:55:37.740Z,21.00
2023-05-16T00:58:06.544Z,21.73
2023-05-16T01:00:34.143Z,20.90
2023-05-16T01:03:01.601Z,19.40
2023-05-16T01:05:29.644Z,20.45
2023-05-16T01:07:56.970Z,19.10
2023-05-16T01:10:25.012Z,18.45
2023-05-16T01:13:11.451Z,20.40
2023-05-16T01:16:30.143Z,19.10
2023-05-16T01:19:44.049Z,18.80
2023-05-16T01:22:48.231Z,19.55
2023-05-16T01:26:13.955Z,20.58
2023-05-16T01:28:47.485Z,20.05
2023-05-16T01:31:15.152Z,19.02
2023-05-16T01:33:42.998Z,19.05
2023-05-16T01:36:48.163Z,19.48
2023-05-16T01:39:47.391Z,19.50
2023-05-16T01:42:16.357Z,19.63
2023-05-16T01:45:00.234Z,18.65
2023-05-16T01:47:33.451Z,19.15
2023-05-16T01:50:17.796Z,20.50
2023-05-16T01:52:51.048Z,20.88
2023-05-16T01:55:33.514Z,22.42
2023-05-16T01:58:04.749Z,22.23
2023-05-16T02:00:34.661Z,20.80
2023-05-16T02:03:02.732Z,20.48
2023-05-16T02:05:29.989Z,19.42
2023-05-16T02:07:59.618Z,20.60
2023-05-16T02:10:28.327Z,19.05
2023-05-16T02:12:55.550Z,19.45
2023-05-16T02:15:23.020Z,20.65
2023-05-16T02:17:50.028Z,22.05
2023-05-16T02:20:17.268Z,20.63
2023-05-16T02:22:44.629Z,21.83
2023-05-16T02:25:11.630Z,21.40
2023-05-16T02:27:38.773Z,22.73
2023-05-16T02:30:06.684Z,22.10
2023-05-16T02:32:34.001Z,22.58
2023-05-16T02:35:01.175Z,21.60
2023-05-16T02:37:28.427Z,24.17
2023-05-16T02:39:55.398Z,22.13
2023-05-16T02:42:22.480Z,22.20
2023-05-16T02:44:49.605Z,21.67
2023-05-16T02:47:17.729Z,23.35
2023-05-16T02:49:44.712Z,24.80
2023-05-16T02:52:11.980Z,22.23
2023-05-16T02:54:38.970Z,24.45
2023-05-16T02:57:06.028Z,22.92
2023-05-16T02:59:33.028Z,26.05
2023-05-16T03:01:59.971Z,24.13
2023-05-16T03:04:27.172Z,24.85
2023-05-16T03:06:54.399Z,22.65
2023-05-16T03:09:21.800Z,27.58
2023-05-16T03:11:48.893Z,28.20
2023-05-16T03:14:15.878Z,27.20
2023-05-16T03:16:43.995Z,27.77
2023-05-16T03:19:11.390Z,26.00
2023-05-16T03:21:38.325Z,27.00
2023-05-16T03:24:06.782Z,28.40
2023-05-16T03:26:33.803Z,27.63
2023-05-16T03:29:01.016Z,26.67
2023-05-16T03:31:28.042Z,26.80
2023-05-16T03:33:55.056Z,28.60
2023-05-16T03:36:24.307Z,28.13
2023-05-16T03:38:51.498Z,30.13
2023-05-16T03:41:19.990Z,35.90
2023-05-16T03:43:47.107Z,35.40
2023-05-16T03:46:14.882Z,35.55
2023-05-16T03:48:43.906Z,33.95
2023-05-16T03:51:10.996Z,31.83
2023-05-16T03:53:38.221Z,36.80
2023-05-16T03:56:06.158Z,37.03
2023-05-16T03:58:33.591Z,37.53
2023-05-16T04:01:00.884Z,36.83
2023-05-16T04:03:29.743Z,34.65
2023-05-16T04:05:57.606Z,36.17
2023-05-16T04:08:24.660Z,35.53
2023-05-16T04:10:52.073Z,33.22
2023-05-16T04:13:19.256Z,32.65
2023-05-16T04:15:46.303Z,33.20
2023-05-16T04:18:13.720Z,32.08
2023-05-16T04:20:43.556Z,30.48
2023-05-16T04:23:12.017Z,28.17
2023-05-16T04:25:39.513Z,30.27
2023-05-16T04:28:07.482Z,29.48
2023-05-16T04:30:34.748Z,28.92
2023-05-16T04:33:05.215Z,26.50
2023-05-16T04:35:33.442Z,26.98
2023-05-16T04:38:04.213Z,30.13
2023-05-16T04:40:31.346Z,30.20
2023-05-16T04:42:59.862Z,29.42
2023-05-16T04:45:27.109Z,28.13
2023-05-16T04:47:54.249Z,28.50
2023-05-16T04:50:21.255Z,27.45
2023-05-16T04:52:48.154Z,23.73
2023-05-16T04:55:15.493Z,25.05
2023-05-16T04:57:42.836Z,24.67
2023-05-16T05:00:11.994Z,26.80
2023-05-16T05:02:39.781Z,24.80
2023-05-16T05:05:08.495Z,25.33
2023-05-16T05:07:35.908Z,25.20
2023-05-16T05:10:02.916Z,27.13
2023-05-16T05:12:30.054Z,25.98
2023-05-16T05:14:58.478Z,25.65
2023-05-16T05:17:26.071Z,26.23
2023-05-16T05:19:53.816Z,27.40
2023-05-16T05:22:21.261Z,26.52
2023-05-16T05:24:48.790Z,25.00
2023-05-16T05:27:21.793Z,25.42
2023-05-16T05:29:51.596Z,26.33
2023-05-16T05:32:19.302Z,24.70
2023-05-16T05:34:52.629Z,27.95
2023-05-16T05:37:20.696Z,27.75
2023-05-16T05:39:47.910Z,27.02
2023-05-16T05:42:15.617Z,25.70
2023-05-16T05:44:42.605Z,26.20
2023-05-16T05:47:10.169Z,26.02
2023-05-16T05:49:37.785Z,25.63
2023-05-16T05:52:05.010Z,25.77
2023-05-16T05:54:32.295Z,28.83
2023-05-16T05:56:59.444Z,27.10
2023-05-16T05:59:27.555Z,24.65
2023-05-16T06:01:54.665Z,24.35
2023-05-16T06:04:22.379Z,23.48
2023-05-16T06:06:49.530Z,24.45
2023-05-16T06:09:16.776Z,24.88
2023-05-16T06:11:45.856Z,24.67
2023-05-16T06:14:16.270Z,25.77
2023-05-16T06:16:44.693Z,25.55
2023-05-16T06:19:16.096Z,24.70
2023-05-16T06:21:44.464Z,27.13
2023-05-16T06:24:12.453Z,26.15
2023-05-16T06:26:41.822Z,26.33
2023-05-16T06:29:08.918Z,27.25
2023-05-16T06:31:38.350Z,25.55
2023-05-16T06:34:05.364Z,30.33
2023-05-16T06:36:32.596Z,31.08
2023-05-16T06:38:59.615Z,30.25
2023-05-16T06:41:27.035Z,32.15
2023-05-16T06:43:54.026Z,33.50
2023-05-16T06:46:21.472Z,31.08
2023-05-16T06:48:48.458Z,31.35
2023-05-16T06:51:16.217Z,33.28
2023-05-16T06:53:43.403Z,33.25
2023-05-16T06:56:10.591Z,32.08
2023-05-16T06:58:37.593Z,32.60
2023-05-16T07:01:05.105Z,32.85
2023-05-16T07:03:32.593Z,33.88
2023-05-16T07:06:00.916Z,33.30
2023-05-16T07:08:28.480Z,30.50
2023-05-16T07:11:46.771Z,28.23
2023-05-16T07:14:13.902Z,28.40
2023-05-16T07:16:42.615Z,28.05
2023-05-16T07:19:10.326Z,27.35
2023-05-16T07:21:37.302Z,25.45
2023-05-16T07:24:05.099Z,23.80
2023-05-16T07:26:32.422Z,21.88
2023-05-16T07:28:59.467Z,21.92
2023-05-16T07:31:27.092Z,22.75
2023-05-16T07:33:54.278Z,22.55
2023-05-16T07:36:22.093Z,22.27
2023-05-16T07:38:49.144Z,23.40
2023-05-16T07:41:16.520Z,22.92
2023-05-16T07:43:44.187Z,22.02
2023-05-16T07:46:12.056Z,21.13
2023-05-16T07:48:41.004Z,19.63
2023-05-16T07:51:08.090Z,20.35
2023-05-16T07:53:35.741Z,19.50
2023-05-16T07:56:04.050Z,19.63
2023-05-16T07:58:31.454Z,17.85
2023-05-16T08:00:58.877Z,17.48
2023-05-16T08:03:26.307Z,16.40
2023-05-16T08:05:53.813Z,16.25
2023-05-16T08:08:21.493Z,15.85
2023-05-16T08:10:48.665Z,17.00
2023-05-16T08:13:15.667Z,16.48
2023-05-16T08:15:43.821Z,15.60
2023-05-16T08:18:16.546Z,16.30
2023-05-16T08:20:43.967Z,14.25
2023-05-16T08:23:11.588Z,16.27
2023-05-16T08:25:39.181Z,15.05
2023-05-16T08:28:06.217Z,15.18
2023-05-16T08:30:33.629Z,16.08
2023-05-16T08:33:05.013Z,14.43
2023-05-16T08:35:35.683Z,14.45
2023-05-16T08:38:03.480Z,14.02
2023-05-16T08:40:31.424Z,14.95
2023-05-16T08:43:01.633Z,15.02
2023-05-16T08:45:31.206Z,14.25
2023-05-16T08:48:02.394Z,15.20
2023-05-16T08:50:33.891Z,14.43
2023-05-16T08:53:09.485Z,15.13
2023-05-16T08:55:39.566Z,14.45
2023-05-16T08:58:07.781Z,14.95
2023-05-16T09:00:36.808Z,13.77
2023-05-16T09:03:05.866Z,14.00
2023-05-16T09:05:33.683Z,13.63
2023-05-16T09:08:00.745Z,12.23
2023-05-16T09:10:28.736Z,14.35
2023-05-16T09:12:57.137Z,13.05
2023-05-16T09:15:31.461Z,14.05
2023-05-16T09:18:04.528Z,13.57
2023-05-16T09:20:31.729Z,12.90
2023-05-16T09:23:00.288Z,13.80
2023-05-16T09:25:32.289Z,13.40
2023-05-16T09:28:02.751Z,12.02
2023-05-16T09:30:34.140Z,13.38
2023-05-16T09:33:02.623Z,13.02
2023-05-16T09:35:43.963Z,14.07
2023-05-16T09:38:17.933Z,11.50
2023-05-16T09:40:46.229Z,12.85
2023-05-16T09:43:17.806Z,11.63
2023-05-16T09:45:49.325Z,11.95
2023-05-16T09:48:18.516Z,10.95
2023-05-16T09:50:54.749Z,12.05
2023-05-16T09:53:30.790Z,11.20
2023-05-16T09:56:11.316Z,11.05
2023-05-16T09:58:41.529Z,10.98
2023-05-16T10:01:10.840Z,9.27
2023-05-16T10:03:44.602Z,9.93
2023-05-16T10:06:13.866Z,9.02
2023-05-16T10:08:43.798Z,8.85
2023-05-16T10:11:12.130Z,9.90
2023-05-16T10:13:41.626Z,8.55
2023-05-16T10:16:14.383Z,8.65
2023-05-16T10:18:43.497Z,9.05
2023-05-16T10:21:17.078Z,8.43
2023-05-16T10:23:48.948Z,8.00
2023-05-16T10:26:18.583Z,8.50
2023-05-16T10:28:46.268Z,8.25
2023-05-16T10:31:15.552Z,8.13
2023-05-16T10:33:45.402Z,8.35
2023-05-16T10:36:14.841Z,9.65
2023-05-16T10:38:43.791Z,9.32
2023-05-16T10:41:12.482Z,8.15
2023-05-16T10:43:39.938Z,8.82
2023-05-16T10:46:11.772Z,8.38
2023-05-16T10:48:41.604Z,7.90
2023-05-16T10:51:26.555Z,8.23
2023-05-16T10:53:55.460Z,7.97
2023-05-16T10:56:30.818Z,7.72
2023-05-16T10:59:00.603Z,7.57
2023-05-16T11:01:36.431Z,7.45
2023-05-16T11:04:08.989Z,7.38
2023-05-16T11:06:42.214Z,7.35
2023-05-16T11:09:24.140Z,6.63
2023-05-16T11:12:04.819Z,6.88
2023-05-16T11:14:39.055Z,6.55
2023-05-16T11:17:18.355Z,6.03
2023-05-16T11:19:59.673Z,5.97
2023-05-16T11:22:34.424Z,6.18
2023-05-16T11:25:08.328Z,5.90
2023-05-16T11:27:44.071Z,5.65
2023-05-16T11:30:16.195Z,5.85
2023-05-16T11:32:46.542Z,5.53
2023-05-16T11:35:18.256Z,5.18
2023-05-16T11:37:47.152Z,5.10
2023-05-16T11:40:19.065Z,5.43
2023-05-16T11:42:49.345Z,5.05
2023-05-16T11:45:20.203Z,5.00
2023-05-16T11:47:49.721Z,5.45
2023-05-16T11:50:20.660Z,4.28
2023-05-16T11:52:54.102Z,4.65
2023-05-16T11:55:41.028Z,4.95
2023-05-16T11:58:10.560Z,5.35
2023-05-16T12:00:49.868Z,4.78
2023-05-16T12:03:21.238Z,4.72
2023-05-16T12:07:21.335Z,5.00
2023-05-16T12:09:58.093Z,4.20
2023-05-16T12:12:26.230Z,5.05
2023-05-16T12:14:57.585Z,4.40
2023-05-16T12:17:29.582Z,4.60
2023-05-16T12:19:58.665Z,4.68
2023-05-16T12:22:26.571Z,4.70
2023-05-16T12:24:54.424Z,4.20
2023-05-16T12:27:34.082Z,3.60
2023-05-16T12:30:01.366Z,4.15
2023-05-16T12:32:28.482Z,4.00
2023-05-16T12:34:56.281Z,4.22
2023-05-16T12:37:23.501Z,4.05
2023-05-16T12:39:54.342Z,3.80
2023-05-16T12:42:23.459Z,4.28
2023-05-16T12:44:56.761Z,3.95
2023-05-16T12:47:25.078Z,3.90
2023-05-16T12:49:52.079Z,3.85
2023-05-16T12:52:21.204Z,4.10
2023-05-16T12:54:49.563Z,4.47
2023-05-16T12:57:16.643Z,3.97
2023-05-16T12:59:45.818Z,3.50
2023-05-16T13:02:13.048Z,4.10
2023-05-16T13:04:40.428Z,4.10
2023-05-16T13:07:08.070Z,3.35
2023-05-16T13:09:36.678Z,3.75
2023-05-16T13:12:04.778Z,4.10
2023-05-16T13:14:34.009Z,3.90
2023-05-16T13:17:01.744Z,3.75
2023-05-16T13:19:31.952Z,4.32
2023-05-16T13:21:58.985Z,3.83
2023-05-16T13:24:26.163Z,3.80
2023-05-16T13:26:54.069Z,3.95
2023-05-16T13:29:21.004Z,3.70
2023-05-16T13:31:49.011Z,3.83
2023-05-16T13:34:16.660Z,4.00
2023-05-16T13:36:54.035Z,3.53
2023-05-16T13:39:22.852Z,3.40
2023-05-16T13:41:51.694Z,3.47
2023-05-16T13:44:19.087Z,3.78
2023-05-16T13:46:46.944Z,3.10
2023-05-16T13:49:13.999Z,2.90
2023-05-16T13:51:41.628Z,2.85
2023-05-16T13:54:08.825Z,3.08
2023-05-16T13:56:35.903Z,2.90
2023-05-16T13:59:06.861Z,3.22
2023-05-16T14:01:35.053Z,3.00
2023-05-16T14:04:03.305Z,3.40
2023-05-16T14:06:31.548Z,3.05
2023-05-16T14:09:01.505Z,3.30
2023-05-16T14:11:29.441Z,3.17
2023-05-16T14:14:00.527Z,3.00
2023-05-16T14:16:28.057Z,3.20
2023-05-16T14:18:55.132Z,2.70
2023-05-16T14:21:23.835Z,2.83
2023-05-16T14:23:51.107Z,2.47
2023-05-16T14:26:22.467Z,2.70
2023-05-16T14:28:49.441Z,2.70
2023-05-16T14:31:16.696Z,2.67
2023-05-16T14:33:44.658Z,2.90
2023-05-16T14:36:14.258Z,3.65
2023-05-16T14:38:41.708Z,3.38
2023-05-16T14:41:10.624Z,2.83
2023-05-16T14:43:38.551Z,3.20
2023-05-16T14:46:06.353Z,3.42
2023-05-16T14:48:35.929Z,3.00
2023-05-16T14:51:05.278Z,3.25
2023-05-16T14:53:32.826Z,2.60
2023-05-16T14:56:00.172Z,2.28
2023-05-16T14:58:27.506Z,2.30
2023-05-16T15:00:56.439Z,2.67
2023-05-16T15:03:23.609Z,2.58
2023-05-16T15:05:51.062Z,2.35
2023-05-16T15:08:19.579Z,2.70
2023-05-16T15:10:47.058Z,2.72
2023-05-16T15:13:14.051Z,2.70
2023-05-16T15:15:42.083Z,2.22
2023-05-16T15:18:11.247Z,2.38
2023-05-16T15:20:39.718Z,3.10
2023-05-16T15:23:06.901Z,2.40
2023-05-16T15:25:34.605Z,2.65
2023-05-16T15:28:03.209Z,3.08
2023-05-16T15:30:30.360Z,2.20
2023-05-16T15:32:57.321Z,2.60
2023-05-16T15:35:24.718Z,2.30
2023-05-16T15:37:53.054Z,2.13
2023-05-16T15:40:25.077Z,2.17
2023-05-16T15:42:54.283Z,2.50
2023-05-16T15:45:21.398Z,2.60
2023-05-16T15:47:48.649Z,2.20
2023-05-16T15:50:18.699Z,2.17
2023-05-16T15:52:45.833Z,2.65
2023-05-16T15:55:12.984Z,2.58
2023-05-16T15:57:40.547Z,2.60
2023-05-16T16:00:09.736Z,2.20
2023-05-16T16:02:40.518Z,1.80
2023-05-16T16:05:08.499Z,1.55
2023-05-16T16:07:35.712Z,1.80
2023-05-16T16:10:02.873Z,2.00
2023-05-16T16:12:31.233Z,2.13
2023-05-16T16:14:58.719Z,2.88
2023-05-16T16:17:25.924Z,2.00
2023-05-16T16:19:53.867Z,2.00
2023-05-16T16:22:22.570Z,2.15
2023-05-16T16:24:50.408Z,2.17
2023-05-16T16:27:17.463Z,2.08
2023-05-16T16:29:44.434Z,2.03
2023-05-16T16:32:11.412Z,2.08
2023-05-16T16:34:38.396Z,1.85
2023-05-16T16:37:05.645Z,1.83
2023-05-16T16:39:33.386Z,2.47
2023-05-16T16:42:07.465Z,1.90
2023-05-16T16:44:35.550Z,2.00
2023-05-16T16:47:03.041Z,1.63
2023-05-16T16:49:32.754Z,1.45
2023-05-16T16:51:59.908Z,2.00
2023-05-16T16:54:28.065Z,1.80
2023-05-16T16:56:56.521Z,1.90
2023-05-16T16:59:23.958Z,1.75
2023-05-16T17:01:52.316Z,1.98
2023-05-16T17:04:19.961Z,1.63
2023-05-16T17:06:48.632Z,1.85
2023-05-16T17:09:18.437Z,1.73
2023-05-16T17:11:46.820Z,1.52
2023-05-16T17:14:15.364Z,1.42
2023-05-16T17:16:44.136Z,1.73
2023-05-16T17:19:11.737Z,1.67
2023-05-16T17:21:40.623Z,1.65
2023-05-16T17:24:08.315Z,1.85
2023-05-16T17:26:36.155Z,1.63
2023-05-16T17:29:06.916Z,1.70
2023-05-16T17:31:36.422Z,1.52
2023-05-16T17:34:03.477Z,1.52
2023-05-16T17:36:31.331Z,1.63
2023-05-16T17:38:59.254Z,2.70
2023-05-16T17:41:27.456Z,2.13
2023-05-16T17:43:54.567Z,1.88
2023-05-16T17:46:21.599Z,1.92
2023-05-16T17:48:49.656Z,1.60
2023-05-16T17:51:18.767Z,1.92
2023-05-16T17:53:46.416Z,1.77
2023-05-16T17:56:14.537Z,1.80
2023-05-16T17:58:42.638Z,1.70
2023-05-16T18:01:10.353Z,1.67
2023-05-16T18:03:38.650Z,1.70
2023-05-16T18:06:06.980Z,2.38
2023-05-16T18:08:34.096Z,2.13
2023-05-16T18:11:01.894Z,2.03
2023-05-16T18:13:29.558Z,1.20
2023-05-16T18:15:56.488Z,1.48
2023-05-16T18:18:24.988Z,1.23
2023-05-16T18:20:52.808Z,1.60
2023-05-16T18:23:21.067Z,1.40
2023-05-16T18:25:49.503Z,1.35
2023-05-16T18:28:17.103Z,1.50
2023-05-16T18:30:44.855Z,1.73
2023-05-16T18:33:12.482Z,1.60
2023-05-16T18:35:42.052Z,1.33
2023-05-16T18:38:20.182Z,2.15
2023-05-16T18:40:56.074Z,1.67
2023-05-16T18:43:23.492Z,1.95
2023-05-16T18:45:51.075Z,1.55
2023-05-16T18:48:19.288Z,1.70
2023-05-16T18:50:50.124Z,1.50
2023-05-16T18:53:17.719Z,1.50
2023-05-16T18:55:46.026Z,1.60
2023-05-16T18:58:13.882Z,1.90
2023-05-16T19:00:42.106Z,1.55
2023-05-16T19:03:10.079Z,1.60
2023-05-16T19:05:38.123Z,2.00
2023-05-16T19:08:06.359Z,1.90
2023-05-16T19:10:38.110Z,1.80
2023-05-16T19:13:09.131Z,2.42
2023-05-16T19:15:38.057Z,1.70
2023-05-16T19:18:06.742Z,2.40
2023-05-16T19:20:37.001Z,2.05
2023-05-16T19:23:05.120Z,2.03
2023-05-16T19:25:34.094Z,1.80
2023-05-16T19:28:02.267Z,2.17
2023-05-16T19:30:30.356Z,1.90
2023-05-16T19:32:58.477Z,1.77
2023-05-16T19:35:27.109Z,2.10
2023-05-16T19:37:55.701Z,2.25
2023-05-16T19:40:23.597Z,2.20
2023-05-16T19:42:51.753Z,2.60
2023-05-16T19:45:19.951Z,2.40
2023-05-16T19:47:48.021Z,2.13
2023-05-16T19:50:17.466Z,2.45
2023-05-16T19:52:45.779Z,3.00
2023-05-16T19:55:15.398Z,2.50
2023-05-16T19:57:43.380Z,3.47
2023-05-16T20:00:11.931Z,2.60
2023-05-16T20:02:43.146Z,2.90
2023-05-16T20:05:11.449Z,2.53
2023-05-16T20:07:40.690Z,2.55
2023-05-16T20:10:09.776Z,2.80
2023-05-16T20:12:38.335Z,2.42
2023-05-16T20:15:08.416Z,2.25
2023-05-16T20:17:36.577Z,2.90
2023-05-16T20:20:06.807Z,2.90
2023-05-16T20:22:35.285Z,3.85
2023-05-16T20:25:02.715Z,2.90
2023-05-16T20:27:31.947Z,3.22
2023-05-16T20:30:00.545Z,3.40
2023-05-16T20:32:29.182Z,3.33
2023-05-16T20:34:58.432Z,2.95
2023-05-16T20:37:26.798Z,2.97
2023-05-16T20:39:57.058Z,3.53
2023-05-16T20:42:24.830Z,2.90
2023-05-16T20:44:52.823Z,3.63
2023-05-16T20:47:20.963Z,3.40
2023-05-16T20:49:48.341Z,3.97
2023-05-16T20:52:19.392Z,3.13
2023-05-16T20:54:49.412Z,3.45
2023-05-16T20:57:17.718Z,2.95
2023-05-16T20:59:46.272Z,3.35
2023-05-16T21:02:14.330Z,3.28
2023-05-16T21:04:41.888Z,3.30
2023-05-16T21:07:11.332Z,4.00
2023-05-16T21:09:39.697Z,3.00
2023-05-16T21:12:07.641Z,2.92
2023-05-16T21:14:35.114Z,2.67
2023-05-16T21:17:02.677Z,2.47
2023-05-16T21:19:34.525Z,2.00
2023-05-16T21:22:04.043Z,2.17
2023-05-16T21:24:35.403Z,1.70
2023-05-16T21:27:05.152Z,1.48
2023-05-16T21:33:07.892Z,1.55
2023-05-16T21:47:18.439Z,1.27
2023-05-16T21:49:45.956Z,1.10
2023-05-16T21:52:14.055Z,1.77
2023-05-16T21:54:41.486Z,1.40
2023-05-16T21:57:09.395Z,1.00
2023-05-16T21:59:37.447Z,1.00
2023-05-16T22:02:05.510Z,1.45
2023-05-16T22:04:34.151Z,1.17
2023-05-16T22:07:01.946Z,0.90
2023-05-16T22:09:29.465Z,0.90
2023-05-16T22:11:56.919Z,1.08
2023-05-16T22:14:25.607Z,0.93
2023-05-16T22:16:53.640Z,1.02
2023-05-16T22:19:27.296Z,1.27
2023-05-16T22:21:56.104Z,1.35
2023-05-16T22:24:23.498Z,1.30
2023-05-16T22:26:50.912Z,1.13
2023-05-16T22:29:18.955Z,1.10
2023-05-16T22:31:46.315Z,1.05
2023-05-16T22:34:13.875Z,1.20
2023-05-16T22:36:42.653Z,1.58
2023-05-16T22:39:10.732Z,1.20
2023-05-16T22:41:38.319Z,1.75
2023-05-16T22:44:05.820Z,1.27
2023-05-16T22:46:33.253Z,0.98
2023-05-16T22:49:00.727Z,1.30
2023-05-16T22:51:28.353Z,1.27
2023-05-16T22:53:55.760Z,1.10
2023-05-16T22:56:23.297Z,1.00
2023-05-16T22:58:50.697Z,0.90
2023-05-16T23:01:18.156Z,1.20
2023-05-16T23:03:45.629Z,1.20
2023-05-16T23:06:13.111Z,1.50
2023-05-16T23:08:42.205Z,1.52
2023-05-16T23:11:09.742Z,1.35
2023-05-16T23:13:37.191Z,1.20
2023-05-16T23:16:04.789Z,1.45
2023-05-16T23:18:32.328Z,1.63
2023-05-16T23:20:59.821Z,1.30
2023-05-16T23:23:27.292Z,1.40
2023-05-16T23:25:55.031Z,1.33
2023-05-16T23:28:22.684Z,1.33
2023-05-16T23:30:50.117Z,1.60
2023-05-16T23:33:18.292Z,1.30
2023-05-16T23:35:46.086Z,1.50
2023-05-16T23:38:13.860Z,1.15
2023-05-16T23:40:41.301Z,1.42
2023-05-16T23:43:08.934Z,1.33
2023-05-16T23:45:36.296Z,1.17
2023-05-16T23:48:05.177Z,1.10
2023-05-16T23:50:32.759Z,1.10
2023-05-16T23:53:00.182Z,1.55
2023-05-16T23:55:27.344Z,1.23
2023-05-16T23:57:54.389Z,1.25
